地図

経路データ

SID SEASON NUMBER BASIN SUBBASIN NAME ISO_TIME NATURE LAT LON WMO_WIND WMO_PRES WMO_AGENCY TRACK_TYPE DIST2LAND LANDFALL IFLAG USA_AGENCY USA_ATCF_ID USA_LAT USA_LON USA_RECORD USA_STATUS USA_WIND USA_PRES USA_SSHS USA_R34_NE USA_R34_SE USA_R34_SW USA_R34_NW USA_R50_NE USA_R50_SE USA_R50_SW USA_R50_NW USA_R64_NE USA_R64_SE USA_R64_SW USA_R64_NW USA_POCI USA_ROCI USA_RMW USA_EYE TOKYO_LAT TOKYO_LON TOKYO_GRADE TOKYO_WIND TOKYO_PRES TOKYO_R50_DIR TOKYO_R50_LONG TOKYO_R50_SHORT TOKYO_R30_DIR TOKYO_R30_LONG TOKYO_R30_SHORT TOKYO_LAND CMA_LAT CMA_LON CMA_CAT CMA_WIND CMA_PRES HKO_LAT HKO_LON HKO_CAT HKO_WIND HKO_PRES NEWDELHI_LAT NEWDELHI_LON NEWDELHI_GRADE NEWDELHI_WIND NEWDELHI_PRES NEWDELHI_CI NEWDELHI_DP NEWDELHI_POCI REUNION_LAT REUNION_LON REUNION_TYPE REUNION_WIND REUNION_PRES REUNION_TNUM REUNION_CI REUNION_RMW REUNION_R34_NE REUNION_R34_SE REUNION_R34_SW REUNION_R34_NW REUNION_R50_NE REUNION_R50_SE REUNION_R50_SW REUNION_R50_NW REUNION_R64_NE REUNION_R64_SE REUNION_R64_SW REUNION_R64_NW BOM_LAT BOM_LON BOM_TYPE BOM_WIND BOM_PRES BOM_TNUM BOM_CI BOM_RMW BOM_R34_NE BOM_R34_SE BOM_R34_SW BOM_R34_NW BOM_R50_NE BOM_R50_SE BOM_R50_SW BOM_R50_NW BOM_R64_NE BOM_R64_SE BOM_R64_SW BOM_R64_NW BOM_ROCI BOM_POCI BOM_EYE BOM_POS_METHOD BOM_PRES_METHOD NADI_LAT NADI_LON NADI_CAT NADI_WIND NADI_PRES WELLINGTON_LAT WELLINGTON_LON WELLINGTON_WIND WELLINGTON_PRES DS824_LAT DS824_LON DS824_STAGE DS824_WIND DS824_PRES TD9636_LAT TD9636_LON TD9636_STAGE TD9636_WIND TD9636_PRES TD9635_LAT TD9635_LON TD9635_WIND TD9635_PRES TD9635_ROCI NEUMANN_LAT NEUMANN_LON NEUMANN_CLASS NEUMANN_WIND NEUMANN_PRES MLC_LAT MLC_LON MLC_CLASS MLC_WIND MLC_PRES USA_GUST BOM_GUST BOM_GUST_PER REUNION_GUST REUNION_GUST_PER USA_SEAHGT USA_SEARAD_NE USA_SEARAD_SE USA_SEARAD_SW USA_SEARAD_NW STORM_SPEED STORM_DIR
1998288N11268 1998 88 EP MM LESTER 1998-10-15 00:00:00 TS 11.3000 -91.7000 30 1005 hurdat_epa main 294 272 O_____________ hurdat_epa EP141998 11.3000 -91.7000 TD 30 1005 -1 5 352
1998288N11268 1998 88 EP MM LESTER 1998-10-15 03:00:00 TS 11.5475 -91.7325 main 272 241 P_____________ EP141998 11.5475 -91.7325 TD 30 1005 -1 5 349
1998288N11268 1998 88 EP MM LESTER 1998-10-15 06:00:00 TS 11.8000 -91.8000 30 1005 hurdat_epa main 241 222 O_____________ hurdat_epa EP141998 11.8000 -91.8000 TD 30 1005 -1 5 340
1998288N11268 1998 88 EP MM LESTER 1998-10-15 09:00:00 TS 12.0575 -91.9275 main 211 199 P_____________ EP141998 12.0575 -91.9275 TD 30 1005 -1 6 330
1998288N11268 1998 88 EP MM LESTER 1998-10-15 12:00:00 TS 12.3000 -92.1000 30 1005 hurdat_epa main 199 184 O_____________ hurdat_epa EP141998 12.3000 -92.1000 TD 30 1005 -1 6 322
1998288N11268 1998 88 EP MM LESTER 1998-10-15 15:00:00 TS 12.5075 -92.2850 main 190 179 P_____________ EP141998 12.5075 -92.2850 TD 32 1004 -1 6 316
1998288N11268 1998 88 EP MM LESTER 1998-10-15 18:00:00 TS 12.7000 -92.5000 35 1004 hurdat_epa main 184 175 O_____________ hurdat_epa EP141998 12.7000 -92.5000 TS 35 1004 0 6 311
1998288N11268 1998 88 EP MM LESTER 1998-10-15 21:00:00 TS 12.8925 -92.7426 main 175 171 P_____________ EP141998 12.8925 -92.7426 TS 37 1003 0 6 309
1998288N11268 1998 88 EP MM LESTER 1998-10-16 00:00:00 TS 13.1000 -93.0000 40 1002 hurdat_epa main 178 172 O_____________ hurdat_epa EP141998 13.1000 -93.0000 TS 40 1002 0 7 313
1998288N11268 1998 88 EP MM LESTER 1998-10-16 03:00:00 TS 13.3500 -93.2500 main 179 171 P_____________ EP141998 13.3500 -93.2500 TS 42 1001 0 7 316
1998288N11268 1998 88 EP MM LESTER 1998-10-16 06:00:00 TS 13.6000 -93.5000 45 1000 hurdat_epa main 171 170 O_____________ hurdat_epa EP141998 13.6000 -93.5000 TS 45 1000 0 7 314
1998288N11268 1998 88 EP MM LESTER 1998-10-16 09:00:00 TS 13.8225 -93.7575 main 178 170 P_____________ EP141998 13.8225 -93.7575 TS 47 998 0 6 309
1998288N11268 1998 88 EP MM LESTER 1998-10-16 12:00:00 TS 14.0000 -94.0000 50 997 hurdat_epa main 178 178 O_____________ hurdat_epa EP141998 14.0000 -94.0000 TS 50 997 0 5 304
1998288N11268 1998 88 EP MM LESTER 1998-10-16 15:00:00 TS 14.1225 -94.2150 main 186 186 P_____________ EP141998 14.1225 -94.2150 TS 60 994 0 4 297
1998288N11268 1998 88 EP MM LESTER 1998-10-16 18:00:00 TS 14.2000 -94.4000 70 991 hurdat_epa main 193 193 O_____________ hurdat_epa EP141998 14.2000 -94.4000 HU 70 991 1 4 293
1998288N11268 1998 88 EP MM LESTER 1998-10-16 21:00:00 TS 14.2575 -94.5500 main 200 200 P_____________ EP141998 14.2575 -94.5500 HU 72 988 1 3 289
1998288N11268 1998 88 EP MM LESTER 1998-10-17 00:00:00 TS 14.3000 -94.7000 75 985 hurdat_epa main 204 197 O_____________ hurdat_epa EP141998 14.3000 -94.7000 HU 75 985 1 4 285
1998288N11268 1998 88 EP MM LESTER 1998-10-17 03:00:00 TS 14.3500 -94.9000 main 186 179 P_____________ EP141998 14.3500 -94.9000 HU 77 982 1 4 284
1998288N11268 1998 88 EP MM LESTER 1998-10-17 06:00:00 TS 14.4000 -95.1000 80 980 hurdat_epa main 179 165 O_____________ hurdat_epa EP141998 14.4000 -95.1000 HU 80 980 1 4 288
1998288N11268 1998 88 EP MM LESTER 1998-10-17 09:00:00 TS 14.4575 -95.2500 main 165 159 P_____________ EP141998 14.4575 -95.2500 HU 82 978 1 3 289
1998288N11268 1998 88 EP MM LESTER 1998-10-17 12:00:00 TS 14.5000 -95.4000 85 976 hurdat_epa main 159 148 O_____________ hurdat_epa EP141998 14.5000 -95.4000 HU 85 976 2 3 279
1998288N11268 1998 88 EP MM LESTER 1998-10-17 15:00:00 TS 14.5075 -95.5775 main 148 141 P_____________ EP141998 14.5075 -95.5775 HU 85 974 2 4 270
1998288N11268 1998 88 EP MM LESTER 1998-10-17 18:00:00 TS 14.5000 -95.8000 85 973 hurdat_epa main 141 134 O_____________ hurdat_epa EP141998 14.5000 -95.8000 HU 85 973 2 5 269
1998288N11268 1998 88 EP MM LESTER 1998-10-17 21:00:00 TS 14.5000 -96.0775 main 134 124 P_____________ EP141998 14.5000 -96.0775 HU 85 973 2 6 270
1998288N11268 1998 88 EP MM LESTER 1998-10-18 00:00:00 TS 14.5000 -96.4000 85 973 hurdat_epa main 124 123 O_____________ hurdat_epa EP141998 14.5000 -96.4000 HU 85 973 2 6 271
1998288N11268 1998 88 EP MM LESTER 1998-10-18 03:00:00 TS 14.5075 -96.7425 main 123 123 P_____________ EP141998 14.5075 -96.7425 HU 85 973 2 7 270
1998288N11268 1998 88 EP MM LESTER 1998-10-18 06:00:00 TS 14.5000 -97.1000 85 973 hurdat_epa main 134 134 O_____________ hurdat_epa EP141998 14.5000 -97.1000 HU 85 973 2 7 266
1998288N11268 1998 88 EP MM LESTER 1998-10-18 09:00:00 TS 14.4574 -97.4500 main 153 153 P_____________ EP141998 14.4574 -97.4500 HU 85 973 2 7 262
1998288N11268 1998 88 EP MM LESTER 1998-10-18 12:00:00 TS 14.4000 -97.8000 85 973 hurdat_epa main 178 178 O_____________ hurdat_epa EP141998 14.4000 -97.8000 HU 85 973 2 7 261
1998288N11268 1998 88 EP MM LESTER 1998-10-18 15:00:00 TS 14.3499 -98.1350 main 193 193 P_____________ EP141998 14.3499 -98.1350 HU 87 973 2 7 262
1998288N11268 1998 88 EP MM LESTER 1998-10-18 18:00:00 TS 14.3000 -98.5000 90 973 hurdat_epa main 204 204 O_____________ hurdat_epa EP141998 14.3000 -98.5000 HU 90 973 2 8 262
1998288N11268 1998 88 EP MM LESTER 1998-10-18 21:00:00 TS 14.2350 -98.9351 main 233 233 P_____________ EP141998 14.2350 -98.9351 HU 90 971 2 9 263
1998288N11268 1998 88 EP MM LESTER 1998-10-19 00:00:00 TS 14.2000 -99.4000 90 970 hurdat_epa main 250 250 O_____________ hurdat_epa EP141998 14.2000 -99.4000 HU 90 970 2 9 270
1998288N11268 1998 88 EP MM LESTER 1998-10-19 03:00:00 TS 14.2349 -99.8424 main 268 268 P_____________ EP141998 14.2349 -99.8424 HU 87 971 2 9 277
1998288N11268 1998 88 EP MM LESTER 1998-10-19 06:00:00 TS 14.3000 -100.300 85 972 hurdat_epa main 276 276 O_____________ hurdat_epa EP141998 14.3000 -100.300 HU 85 972 2 9 277
1998288N11268 1998 88 EP MM LESTER 1998-10-19 09:00:00 TS 14.3425 -100.800 main 293 287 P_____________ EP141998 14.3425 -100.800 HU 85 973 2 10 276
1998288N11268 1998 88 EP MM LESTER 1998-10-19 12:00:00 TS 14.4000 -101.300 85 974 hurdat_epa main 309 309 O_____________ hurdat_epa EP141998 14.4000 -101.300 HU 85 974 2 9 279
1998288N11268 1998 88 EP MM LESTER 1998-10-19 15:00:00 TS 14.4849 -101.765 main 320 320 P_____________ EP141998 14.4849 -101.765 HU 82 976 1 9 283
1998288N11268 1998 88 EP MM LESTER 1998-10-19 18:00:00 TS 14.6000 -102.200 80 978 hurdat_epa main 324 322 O_____________ hurdat_epa EP141998 14.6000 -102.200 HU 80 978 1 9 289
1998288N11268 1998 88 EP MM LESTER 1998-10-19 21:00:00 TS 14.7574 -102.600 main 322 322 P_____________ EP141998 14.7574 -102.600 HU 82 977 1 8 291
1998288N11268 1998 88 EP MM LESTER 1998-10-20 00:00:00 TS 14.9000 -103.000 85 977 hurdat_epa main 336 336 O_____________ hurdat_epa EP141998 14.9000 -103.000 HU 85 977 2 8 284
1998288N11268 1998 88 EP MM LESTER 1998-10-20 03:00:00 TS 14.9575 -103.443 main 345 345 P_____________ EP141998 14.9575 -103.443 HU 87 975 2 9 277
1998288N11268 1998 88 EP MM LESTER 1998-10-20 06:00:00 TS 15.0000 -103.900 90 973 hurdat_epa main 362 362 O_____________ hurdat_epa EP141998 15.0000 -103.900 HU 90 973 2 9 278
1998288N11268 1998 88 EP MM LESTER 1998-10-20 09:00:00 TS 15.0849 -104.343 main 366 366 P_____________ EP141998 15.0849 -104.343 HU 90 972 2 9 283
1998288N11268 1998 88 EP MM LESTER 1998-10-20 12:00:00 TS 15.2000 -104.800 90 971 hurdat_epa main 373 371 O_____________ hurdat_epa EP141998 15.2000 -104.800 HU 90 971 2 10 285
1998288N11268 1998 88 EP MM LESTER 1998-10-20 15:00:00 TS 15.3350 -105.300 main 386 382 P_____________ EP141998 15.3350 -105.300 HU 90 970 2 10 287
1998288N11268 1998 88 EP MM LESTER 1998-10-20 18:00:00 TS 15.5000 -105.800 90 970 hurdat_epa main 397 395 O_____________ hurdat_epa EP141998 15.5000 -105.800 HU 90 970 2 10 291
1998288N11268 1998 88 EP MM LESTER 1998-10-20 21:00:00 TS 15.6999 -106.265 main 416 415 P_____________ EP141998 15.6999 -106.265 HU 90 970 2 10 295
1998288N11268 1998 88 EP MM LESTER 1998-10-21 00:00:00 TS 15.9000 -106.700 90 970 hurdat_epa main 420 416 O_____________ hurdat_epa EP141998 15.9000 -106.700 HU 90 970 2 9 293
1998288N11268 1998 88 EP MM LESTER 1998-10-21 03:00:00 TS 16.0575 -107.123 main 423 423 P_____________ EP141998 16.0575 -107.123 HU 90 970 2 8 291
1998288N11268 1998 88 EP MM LESTER 1998-10-21 06:00:00 TS 16.2000 -107.500 90 970 hurdat_epa main 441 439 O_____________ hurdat_epa EP141998 16.2000 -107.500 HU 90 970 2 7 295
1998288N11268 1998 88 EP MM LESTER 1998-10-21 09:00:00 TS 16.3649 -107.823 main 446 446 P_____________ EP141998 16.3649 -107.823 HU 90 970 2 7 298
1998288N11268 1998 88 EP MM LESTER 1998-10-21 12:00:00 TS 16.5000 -108.100 90 970 hurdat_epa main 461 461 O_____________ hurdat_epa EP141998 16.5000 -108.100 HU 90 970 2 6 291
1998288N11268 1998 88 EP MM LESTER 1998-10-21 15:00:00 TS 16.5725 -108.388 main 476 476 P_____________ EP141998 16.5725 -108.388 HU 90 970 2 5 282
1998288N11268 1998 88 EP MM LESTER 1998-10-21 18:00:00 TS 16.6000 -108.600 90 970 hurdat_epa main 491 491 O_____________ hurdat_epa EP141998 16.6000 -108.600 HU 90 970 2 3 276
1998288N11268 1998 88 EP MM LESTER 1998-10-21 21:00:00 TS 16.5999 -108.680 main 499 499 P_____________ EP141998 16.5999 -108.680 HU 90 970 2 1 270
1998288N11268 1998 88 EP MM LESTER 1998-10-22 00:00:00 TS 16.6000 -108.700 90 970 hurdat_epa main 499 499 O_____________ hurdat_epa EP141998 16.6000 -108.700 HU 90 970 2 1 299
1998288N11268 1998 88 EP MM LESTER 1998-10-22 03:00:00 TS 16.6425 -108.757 main 507 499 P_____________ EP141998 16.6425 -108.757 HU 92 968 2 1 317
1998288N11268 1998 88 EP MM LESTER 1998-10-22 06:00:00 TS 16.7000 -108.800 95 967 hurdat_epa main 499 491 O_____________ hurdat_epa EP141998 16.7000 -108.800 HU 95 967 2 1 339
1998288N11268 1998 88 EP MM LESTER 1998-10-22 09:00:00 TS 16.7650 -108.800 main 491 491 P_____________ EP141998 16.7650 -108.800 HU 97 966 3 1 0
1998288N11268 1998 88 EP MM LESTER 1998-10-22 12:00:00 TS 16.8000 -108.800 100 965 hurdat_epa main 491 491 O_____________ hurdat_epa EP141998 16.8000 -108.800 HU 100 965 3 0 281
1998288N11268 1998 88 EP MM LESTER 1998-10-22 15:00:00 TS 16.7725 -108.843 main 491 491 P_____________ EP141998 16.7725 -108.843 HU 100 965 3 1 223
1998288N11268 1998 88 EP MM LESTER 1998-10-22 18:00:00 TS 16.7000 -108.900 100 966 hurdat_epa main 507 507 O_____________ hurdat_epa EP141998 16.7000 -108.900 HU 100 966 3 2 212
1998288N11268 1998 88 EP MM LESTER 1998-10-22 21:00:00 TS 16.6075 -108.950 main 522 522 P_____________ EP141998 16.6075 -108.950 HU 97 968 3 2 207
1998288N11268 1998 88 EP MM LESTER 1998-10-23 00:00:00 TS 16.5000 -109.000 95 970 hurdat_epa main 530 530 O_____________ hurdat_epa EP141998 16.5000 -109.000 HU 95 970 2 2 203
1998288N11268 1998 88 EP MM LESTER 1998-10-23 03:00:00 TS 16.4075 -109.035 main 537 537 P_____________ EP141998 16.4075 -109.035 HU 87 975 2 2 207
1998288N11268 1998 88 EP MM LESTER 1998-10-23 06:00:00 TS 16.3000 -109.100 80 980 hurdat_epa main 553 553 O_____________ hurdat_epa EP141998 16.3000 -109.100 HU 80 980 1 3 219
1998288N11268 1998 88 EP MM LESTER 1998-10-23 09:00:00 TS 16.1725 -109.235 main 568 568 P_____________ EP141998 16.1725 -109.235 HU 72 985 1 4 224
1998288N11268 1998 88 EP MM LESTER 1998-10-23 12:00:00 TS 16.0000 -109.400 65 990 hurdat_epa main 599 599 O_____________ hurdat_epa EP141998 16.0000 -109.400 HU 65 990 1 5 215
1998288N11268 1998 88 EP MM LESTER 1998-10-23 15:00:00 TS 15.7500 -109.543 main 631 631 P_____________ EP141998 15.7500 -109.543 HU 62 992 0 6 210
1998288N11268 1998 88 EP MM LESTER 1998-10-23 18:00:00 TS 15.5000 -109.700 60 995 hurdat_epa main 662 662 O_____________ hurdat_epa EP141998 15.5000 -109.700 TS 60 995 0 5 218
1998288N11268 1998 88 EP MM LESTER 1998-10-23 21:00:00 TS 15.3200 -109.885 main 693 693 P_____________ EP141998 15.3200 -109.885 TS 57 996 0 5 232
1998288N11268 1998 88 EP MM LESTER 1998-10-24 00:00:00 TS 15.2000 -110.100 55 998 hurdat_epa main 716 716 O_____________ hurdat_epa EP141998 15.2000 -110.100 TS 55 998 0 5 244
1998288N11268 1998 88 EP MM LESTER 1998-10-24 03:00:00 TS 15.1124 -110.328 main 739 739 P_____________ EP141998 15.1124 -110.328 TS 52 999 0 5 258
1998288N11268 1998 88 EP MM LESTER 1998-10-24 06:00:00 TS 15.1000 -110.600 50 1000 hurdat_epa main 762 762 O_____________ hurdat_epa EP141998 15.1000 -110.600 TS 50 1000 0 6 276
1998288N11268 1998 88 EP MM LESTER 1998-10-24 09:00:00 TS 15.1775 -110.935 main 778 778 P_____________ EP141998 15.1775 -110.935 TS 47 1001 0 7 286
1998288N11268 1998 88 EP MM LESTER 1998-10-24 12:00:00 TS 15.3000 -111.300 45 1002 hurdat_epa main 804 804 O_____________ hurdat_epa EP141998 15.3000 -111.300 TS 45 1002 0 7 286
1998288N11268 1998 88 EP MM LESTER 1998-10-24 15:00:00 TS 15.3774 -111.643 main 823 823 P_____________ EP141998 15.3774 -111.643 TS 45 1002 0 7 286
1998288N11268 1998 88 EP MM LESTER 1998-10-24 18:00:00 TS 15.5000 -112.000 45 1003 hurdat_epa main 851 840 O_____________ hurdat_epa EP141998 15.5000 -112.000 TS 45 1003 0 8 296
1998288N11268 1998 88 EP MM LESTER 1998-10-24 21:00:00 TS 15.7275 -112.392 main 843 822 P_____________ EP141998 15.7275 -112.392 TS 42 1003 0 9 303
1998288N11268 1998 88 EP MM LESTER 1998-10-25 00:00:00 TS 16.0000 -112.800 40 1004 hurdat_epa main 825 816 O_____________ hurdat_epa EP141998 16.0000 -112.800 TS 40 1004 0 10 303
1998288N11268 1998 88 EP MM LESTER 1998-10-25 03:00:00 TS 16.2500 -113.215 main 810 804 P_____________ EP141998 16.2500 -113.215 TS 40 1004 0 9 303
1998288N11268 1998 88 EP MM LESTER 1998-10-25 06:00:00 TS 16.5000 -113.600 40 1005 hurdat_epa main 808 794 O_____________ hurdat_epa EP141998 16.5000 -113.600 TS 40 1005 0 9 307
1998288N11268 1998 88 EP MM LESTER 1998-10-25 09:00:00 TS 16.7649 -113.923 main 794 786 P_____________ EP141998 16.7649 -113.923 TS 40 1005 0 8 311
1998288N11268 1998 88 EP MM LESTER 1998-10-25 12:00:00 TS 17.0000 -114.200 40 1005 hurdat_epa main 792 785 O_____________ hurdat_epa EP141998 17.0000 -114.200 TS 40 1005 0 7 309
1998288N11268 1998 88 EP MM LESTER 1998-10-25 15:00:00 TS 17.1800 -114.465 main 791 789 P_____________ EP141998 17.1800 -114.465 TS 37 1005 0 6 302
1998288N11268 1998 88 EP MM LESTER 1998-10-25 18:00:00 TS 17.3000 -114.700 35 1005 hurdat_epa main 795 795 O_____________ hurdat_epa EP141998 17.3000 -114.700 TS 35 1005 0 5 293
1998288N11268 1998 88 EP MM LESTER 1998-10-25 21:00:00 TS 17.3650 -114.923 main 799 799 P_____________ EP141998 17.3650 -114.923 TS 32 1005 -1 4 285
1998288N11268 1998 88 EP MM LESTER 1998-10-26 00:00:00 TS 17.4000 -115.100 30 1005 hurdat_epa main 813 813 O_____________ hurdat_epa EP141998 17.4000 -115.100 TD 30 1005 -1 3 284
1998288N11268 1998 88 EP MM LESTER 1998-10-26 03:00:00 TS 17.4425 -115.238 main 820 818 P_____________ EP141998 17.4425 -115.238 TD 30 1005 -1 2 298
1998288N11268 1998 88 EP MM LESTER 1998-10-26 06:00:00 TS 17.5000 -115.300 30 1005 hurdat_epa main 818 810 O_____________ hurdat_epa EP141998 17.5000 -115.300 TD 30 1005 -1 2 344
1998288N11268 1998 88 EP MM LESTER 1998-10-26 09:00:00 TS 17.5900 -115.275 main 810 794 P_____________ EP141998 17.5900 -115.275 TD 27 1005 -1 2 27
1998288N11268 1998 88 EP MM LESTER 1998-10-26 12:00:00 TS 17.7000 -115.200 25 1005 hurdat_epa main 794 O_____________ hurdat_epa EP141998 17.7000 -115.200 TD 25 1005 -1 3 33

IBTrACS Databaseについて

本データベースは、米国NOAAが公開する1842年以降の世界の熱帯低気圧のベストトラックデータアーカイブInternational Best Track Archive for Climate Stewardship (IBTrACS)を、ウェブで閲覧しやすい形式に変換したものです。

最終更新日:2021-10-25